createdAt,value
2023-02-05T00:01:35.288Z,13.48
2023-02-05T00:04:02.284Z,13.20
2023-02-05T00:06:29.250Z,14.95
2023-02-05T00:08:57.209Z,12.63
2023-02-05T00:11:24.960Z,13.48
2023-02-05T00:13:52.086Z,13.75
2023-02-05T00:16:20.619Z,12.75
2023-02-05T00:18:47.741Z,15.38
2023-02-05T00:21:15.207Z,14.35
2023-02-05T00:23:42.695Z,12.77
2023-02-05T00:26:10.693Z,13.05
2023-02-05T00:28:38.288Z,12.75
2023-02-05T00:31:09.590Z,12.55
2023-02-05T00:33:36.807Z,14.20
2023-02-05T00:36:03.974Z,13.32
2023-02-05T00:38:31.092Z,13.95
2023-02-05T00:40:58.092Z,12.60
2023-02-05T00:43:25.240Z,13.95
2023-02-05T00:45:52.310Z,13.13
2023-02-05T00:48:19.327Z,14.77
2023-02-05T00:50:48.006Z,12.50
2023-02-05T00:53:15.094Z,13.57
2023-02-05T00:55:42.301Z,15.13
2023-02-05T00:58:09.269Z,13.57
2023-02-05T01:00:36.414Z,12.43
2023-02-05T01:03:03.399Z,11.85
2023-02-05T01:05:30.718Z,13.73
2023-02-05T01:07:58.035Z,14.82
2023-02-05T01:10:25.087Z,13.80
2023-02-05T01:12:52.204Z,12.18
2023-02-05T01:15:19.647Z,15.10
2023-02-05T01:17:46.738Z,14.40
2023-02-05T01:20:14.247Z,13.32
2023-02-05T01:22:41.379Z,15.05
2023-02-05T01:25:11.093Z,14.27
2023-02-05T01:27:38.452Z,14.50
2023-02-05T01:30:06.467Z,13.25
2023-02-05T01:32:43.836Z,13.95
2023-02-05T01:35:10.876Z,14.07
2023-02-05T01:37:38.016Z,13.82
2023-02-05T01:40:05.423Z,13.48
2023-02-05T01:42:33.726Z,13.75
2023-02-05T01:45:19.295Z,17.58
2023-02-05T01:47:46.328Z,15.35
2023-02-05T01:50:13.487Z,14.07
2023-02-05T01:52:40.616Z,13.45
2023-02-05T01:55:08.475Z,16.98
2023-02-05T01:57:37.304Z,14.93
2023-02-05T02:00:05.570Z,14.02
2023-02-05T02:02:32.848Z,14.38
2023-02-05T02:05:02.321Z,16.30
2023-02-05T02:07:29.328Z,12.02
2023-02-05T02:09:56.386Z,14.35
2023-02-05T02:12:24.984Z,13.93
2023-02-05T02:15:03.391Z,12.57
2023-02-05T02:17:33.301Z,12.27
2023-02-05T02:20:02.025Z,12.32
2023-02-05T02:22:44.319Z,14.05
2023-02-05T02:25:29.906Z,14.35
2023-02-05T02:28:08.276Z,14.50
2023-02-05T02:30:43.538Z,16.08
2023-02-05T02:33:23.454Z,14.38
2023-02-05T02:35:54.738Z,13.73
2023-02-05T02:38:21.859Z,12.65
2023-02-05T02:40:56.235Z,15.48
2023-02-05T02:43:26.024Z,16.52
2023-02-05T02:45:59.720Z,15.90
2023-02-05T02:48:28.815Z,14.98
2023-02-05T02:51:05.651Z,15.07
2023-02-05T02:53:54.511Z,18.27
2023-02-05T02:56:22.378Z,14.07
2023-02-05T02:58:51.129Z,14.70
2023-02-05T03:01:20.998Z,16.65
2023-02-05T03:03:53.025Z,14.63
2023-02-05T03:06:21.034Z,18.63
2023-02-05T03:08:48.008Z,16.13
2023-02-05T03:11:15.514Z,15.40
2023-02-05T03:13:43.884Z,17.05
2023-02-05T03:16:11.380Z,15.45
2023-02-05T03:18:39.686Z,17.08
2023-02-05T03:21:12.433Z,15.70
2023-02-05T03:23:39.676Z,15.23
2023-02-05T03:26:06.656Z,14.20
2023-02-05T03:28:33.697Z,16.40
2023-02-05T03:31:00.759Z,16.90
2023-02-05T03:33:47.827Z,16.38
2023-02-05T03:36:25.959Z,16.75
2023-02-05T03:39:04.955Z,15.38
2023-02-05T03:41:51.914Z,15.73
2023-02-05T03:44:26.443Z,15.75
2023-02-05T03:47:00.160Z,16.95
2023-02-05T03:49:39.871Z,17.77
2023-02-05T03:52:09.936Z,16.53
2023-02-05T03:54:54.996Z,15.38
2023-02-05T03:57:26.835Z,17.63
2023-02-05T03:59:56.587Z,16.27
2023-02-05T04:02:23.942Z,15.57
2023-02-05T04:04:51.031Z,15.88
2023-02-05T04:07:18.072Z,15.32
2023-02-05T04:09:45.053Z,17.40
2023-02-05T04:12:12.058Z,17.13
2023-02-05T04:14:39.130Z,18.58
2023-02-05T04:17:07.519Z,16.63
2023-02-05T04:19:34.631Z,17.33
2023-02-05T04:22:03.983Z,20.58
2023-02-05T04:24:30.981Z,18.05
2023-02-05T04:26:58.209Z,19.25
2023-02-05T04:29:25.283Z,19.55
2023-02-05T04:31:52.380Z,17.23
2023-02-05T04:34:19.442Z,19.90
2023-02-05T04:36:46.822Z,17.92
2023-02-05T04:39:13.915Z,18.98
2023-02-05T04:41:41.080Z,16.40
2023-02-05T04:44:08.193Z,16.45
2023-02-05T04:46:35.292Z,16.77
2023-02-05T04:49:02.385Z,18.33
2023-02-05T04:51:29.403Z,18.00
2023-02-05T04:53:56.463Z,16.75
2023-02-05T04:56:25.759Z,19.27
2023-02-05T04:58:52.863Z,18.90
2023-02-05T05:01:21.620Z,18.55
2023-02-05T05:03:49.228Z,17.27
2023-02-05T05:06:17.252Z,18.10
2023-02-05T05:08:45.528Z,16.40
2023-02-05T05:11:14.266Z,17.27
2023-02-05T05:13:41.669Z,17.90
2023-02-05T05:16:08.934Z,17.27
2023-02-05T05:18:36.088Z,17.45
2023-02-05T05:21:04.042Z,17.25
2023-02-05T05:23:32.569Z,16.05
2023-02-05T05:25:59.591Z,18.50
2023-02-05T05:28:27.580Z,18.30
2023-02-05T05:30:54.571Z,19.30
2023-02-05T05:33:23.844Z,19.02
2023-02-05T05:35:50.866Z,20.75
2023-02-05T05:38:17.856Z,19.52
2023-02-05T05:41:03.588Z,19.92
2023-02-05T05:43:49.003Z,17.02
2023-02-05T05:46:22.536Z,16.35
2023-02-05T05:48:56.996Z,18.85
2023-02-05T05:51:25.006Z,19.13
2023-02-05T05:53:52.345Z,17.30
2023-02-05T05:56:19.376Z,18.92
2023-02-05T05:58:49.159Z,18.30
2023-02-05T06:01:17.179Z,16.15
2023-02-05T06:03:44.425Z,17.17
2023-02-05T06:06:12.701Z,17.35
2023-02-05T06:08:39.745Z,17.08
2023-02-05T06:11:06.792Z,17.05
2023-02-05T06:13:34.815Z,19.30
2023-02-05T06:16:01.812Z,19.95
2023-02-05T06:18:30.127Z,19.58
2023-02-05T06:20:57.120Z,17.55
2023-02-05T06:23:24.247Z,19.05
2023-02-05T06:25:51.306Z,19.77
2023-02-05T06:28:20.808Z,20.35
2023-02-05T06:30:47.864Z,18.00
2023-02-05T06:33:14.954Z,18.60
2023-02-05T06:35:42.372Z,19.85
2023-02-05T06:38:09.793Z,20.08
2023-02-05T06:40:36.886Z,21.73
2023-02-05T06:43:04.041Z,19.50
2023-02-05T06:45:31.028Z,18.25
2023-02-05T06:48:00.533Z,20.75
2023-02-05T06:50:27.595Z,18.40
2023-02-05T06:52:54.631Z,20.02
2023-02-05T06:55:21.707Z,20.85
2023-02-05T06:57:48.691Z,21.30
2023-02-05T07:00:16.000Z,22.20
2023-02-05T07:02:43.103Z,21.60
2023-02-05T07:05:10.384Z,21.38
2023-02-05T07:07:37.362Z,23.17
2023-02-05T07:10:09.939Z,22.50
2023-02-05T07:12:38.080Z,24.20
2023-02-05T07:15:05.413Z,24.20
2023-02-05T07:17:32.453Z,27.48
2023-02-05T07:19:59.488Z,25.05
2023-02-05T07:22:26.550Z,25.23
2023-02-05T07:24:53.578Z,27.50
2023-02-05T07:27:20.590Z,24.30
2023-02-05T07:29:47.827Z,25.92
2023-02-05T07:32:14.975Z,24.23
2023-02-05T07:34:42.224Z,25.17
2023-02-05T07:37:09.259Z,24.85
2023-02-05T07:39:36.231Z,24.20
2023-02-05T07:42:03.306Z,24.42
2023-02-05T07:44:30.461Z,25.13
2023-02-05T07:46:57.481Z,24.70
2023-02-05T07:49:27.188Z,25.00
2023-02-05T07:51:54.184Z,23.13
2023-02-05T07:54:21.227Z,25.10
2023-02-05T07:56:48.281Z,26.70
2023-02-05T07:59:17.747Z,24.17
2023-02-05T08:01:44.851Z,25.50
2023-02-05T08:04:11.867Z,24.40
2023-02-05T08:06:38.867Z,22.60
2023-02-05T08:09:05.827Z,23.25
2023-02-05T08:11:32.871Z,20.20
2023-02-05T08:14:07.757Z,23.67
2023-02-05T08:16:34.797Z,18.90
2023-02-05T08:19:01.799Z,18.50
2023-02-05T08:21:28.796Z,20.58
2023-02-05T08:23:58.359Z,19.27
2023-02-05T08:26:25.390Z,23.15
2023-02-05T08:28:52.876Z,22.77
2023-02-05T08:31:20.162Z,25.60
2023-02-05T08:33:47.982Z,26.42
2023-02-05T08:36:15.002Z,29.17
2023-02-05T08:38:42.008Z,26.13
2023-02-05T08:41:12.991Z,25.95
2023-02-05T08:43:44.486Z,25.77
2023-02-05T08:46:12.285Z,28.23
2023-02-05T08:48:39.402Z,27.60
2023-02-05T08:51:09.263Z,25.95
2023-02-05T08:53:36.264Z,26.83
2023-02-05T08:56:05.274Z,27.40
2023-02-05T08:58:34.731Z,26.20
2023-02-05T09:01:05.788Z,28.85
2023-02-05T09:03:33.133Z,23.63
2023-02-05T09:06:03.093Z,24.33
2023-02-05T09:08:31.294Z,23.13
2023-02-05T09:10:58.323Z,20.92
2023-02-05T09:13:25.736Z,20.40
2023-02-05T09:15:52.848Z,20.15
2023-02-05T09:18:20.207Z,21.55
2023-02-05T09:20:49.710Z,21.45
2023-02-05T09:23:17.859Z,23.88
2023-02-05T09:25:52.259Z,19.05
2023-02-05T09:28:19.315Z,13.35
2023-02-05T09:30:46.907Z,16.65
2023-02-05T09:33:17.263Z,15.15
2023-02-05T09:35:44.367Z,17.42
2023-02-05T09:38:17.657Z,19.23
2023-02-05T09:40:59.225Z,15.55
2023-02-05T09:46:33.249Z,8.80
2023-02-05T09:49:19.051Z,10.38
2023-02-05T09:51:47.888Z,7.07
2023-02-05T09:54:32.682Z,5.40
2023-02-05T09:57:04.295Z,7.63
2023-02-05T09:59:32.239Z,6.57
2023-02-05T10:02:00.426Z,6.53
2023-02-05T10:04:28.219Z,5.93
2023-02-05T10:07:11.443Z,4.45
2023-02-05T10:09:50.449Z,4.80
2023-02-05T10:12:27.051Z,4.88
2023-02-05T10:14:57.122Z,5.35
2023-02-05T10:17:39.141Z,5.82
2023-02-05T10:20:24.858Z,5.10
2023-02-05T10:22:58.794Z,5.20
2023-02-05T10:25:25.902Z,5.20
2023-02-05T10:27:55.638Z,5.18
2023-02-05T10:30:29.035Z,5.00
2023-02-05T10:32:56.810Z,6.00
2023-02-05T10:35:48.593Z,6.10
2023-02-05T10:38:25.141Z,5.43
2023-02-05T10:40:54.174Z,5.10
2023-02-05T10:43:21.152Z,5.05
2023-02-05T10:45:49.004Z,4.30
2023-02-05T10:48:24.537Z,4.88
2023-02-05T10:51:23.807Z,4.78
2023-02-05T10:53:53.258Z,3.22
2023-02-05T10:56:21.584Z,3.65
2023-02-05T10:58:52.464Z,3.28
2023-02-05T11:01:24.897Z,1.98
2023-02-05T11:03:57.025Z,2.75
2023-02-05T11:06:25.860Z,3.15
2023-02-05T11:08:52.971Z,2.40
2023-02-05T11:11:30.735Z,2.30
2023-02-05T11:14:01.531Z,2.20
2023-02-05T11:16:44.685Z,2.90
2023-02-05T11:19:24.132Z,1.92
2023-02-05T11:21:53.616Z,2.10
2023-02-05T11:24:29.467Z,3.97
2023-02-05T11:27:15.279Z,3.17
2023-02-05T11:29:42.958Z,2.92
2023-02-05T11:32:28.475Z,3.58
2023-02-05T11:35:08.772Z,2.80
2023-02-05T11:37:39.262Z,3.55
2023-02-05T11:40:06.537Z,2.88
2023-02-05T11:42:33.630Z,2.80
2023-02-05T11:45:02.832Z,3.40
2023-02-05T11:47:32.076Z,2.97
2023-02-05T11:49:59.657Z,3.00
2023-02-05T11:52:29.074Z,2.95
2023-02-05T11:54:56.534Z,2.85
2023-02-05T11:57:23.555Z,2.80
2023-02-05T11:59:58.064Z,2.92
2023-02-05T12:02:25.107Z,2.60
2023-02-05T12:04:55.851Z,4.05
2023-02-05T12:07:23.777Z,3.47
2023-02-05T12:09:55.465Z,3.28
2023-02-05T12:12:27.760Z,3.22
2023-02-05T12:15:10.042Z,3.75
2023-02-05T12:17:40.956Z,3.50
2023-02-05T12:20:10.762Z,2.80
2023-02-05T12:22:56.331Z,3.35
2023-02-05T12:25:23.428Z,3.83
2023-02-05T12:27:50.536Z,2.90
2023-02-05T12:30:30.808Z,3.00
2023-02-05T12:33:16.700Z,2.88
2023-02-05T12:35:56.835Z,3.10
2023-02-05T12:38:42.757Z,3.28
2023-02-05T12:41:15.885Z,4.03
2023-02-05T12:43:45.886Z,7.55
2023-02-05T12:46:21.507Z,4.03
2023-02-05T12:48:51.381Z,4.28
2023-02-05T12:51:36.776Z,4.43
2023-02-05T12:54:12.722Z,4.18
2023-02-05T12:56:53.386Z,4.35
2023-02-05T13:01:50.170Z,4.65
2023-02-05T13:04:40.179Z,4.38
2023-02-05T13:07:12.269Z,4.93
2023-02-05T13:09:44.340Z,5.05
2023-02-05T13:12:13.490Z,6.00
2023-02-05T13:14:42.756Z,6.38
2023-02-05T13:17:15.745Z,5.72
2023-02-05T13:19:48.664Z,5.85
2023-02-05T13:22:37.138Z,5.47
2023-02-05T13:25:38.195Z,6.93
2023-02-05T13:28:33.086Z,6.38
2023-02-05T13:31:00.767Z,5.53
2023-02-05T13:33:28.319Z,6.65
2023-02-05T13:36:02.294Z,6.95
2023-02-05T13:38:46.768Z,7.32
2023-02-05T13:41:19.858Z,4.22
2023-02-05T13:44:05.294Z,4.70
2023-02-05T13:46:46.757Z,6.22
2023-02-05T13:49:28.327Z,5.40
2023-02-05T13:52:04.815Z,5.15
2023-02-05T13:54:50.533Z,5.53
2023-02-05T13:57:32.753Z,5.25
2023-02-05T14:00:00.808Z,6.55
2023-02-05T14:02:30.654Z,6.28
2023-02-05T14:04:58.580Z,4.70
2023-02-05T14:07:28.291Z,6.25
2023-02-05T14:09:59.494Z,7.27
2023-02-05T14:12:31.383Z,6.15
2023-02-05T14:15:16.600Z,6.00
2023-02-05T14:17:43.664Z,4.82
2023-02-05T14:20:30.927Z,6.30
2023-02-05T14:23:00.858Z,6.15
2023-02-05T14:25:41.572Z,6.57
2023-02-05T14:30:48.081Z,5.05
2023-02-05T14:33:47.743Z,5.80
2023-02-05T14:36:24.991Z,6.10
2023-02-05T14:38:55.828Z,5.90
2023-02-05T14:41:25.106Z,5.72
2023-02-05T14:43:54.778Z,6.68
2023-02-05T14:46:24.614Z,5.90
2023-02-05T14:48:52.293Z,4.32
2023-02-05T14:51:33.131Z,4.72
2023-02-05T14:54:01.388Z,6.05
2023-02-05T14:56:33.728Z,6.95
2023-02-05T14:59:07.477Z,5.90
2023-02-05T15:01:34.503Z,4.95
2023-02-05T15:04:02.565Z,6.22
2023-02-05T15:06:30.690Z,4.40
2023-02-05T15:09:04.859Z,4.60
2023-02-05T15:11:57.770Z,5.68
2023-02-05T15:14:30.633Z,5.05
2023-02-05T15:17:06.544Z,5.15
2023-02-05T15:19:48.976Z,5.00
2023-02-05T15:22:36.619Z,6.55
2023-02-05T15:25:04.907Z,5.05
2023-02-05T15:27:37.882Z,3.90
2023-02-05T15:30:06.745Z,4.97
2023-02-05T15:32:37.001Z,5.50
2023-02-05T15:35:11.594Z,5.38
2023-02-05T15:37:49.750Z,4.88
2023-02-05T15:40:22.695Z,4.50
2023-02-05T15:42:55.586Z,3.80
2023-02-05T15:45:26.976Z,4.80
2023-02-05T15:48:00.239Z,3.78
2023-02-05T15:50:27.507Z,6.03
2023-02-05T15:52:54.544Z,3.40
2023-02-05T15:55:22.197Z,4.20
2023-02-05T15:57:49.562Z,4.03
2023-02-05T16:00:26.829Z,4.40
2023-02-05T16:02:58.083Z,4.53
2023-02-05T16:05:25.856Z,4.38
2023-02-05T16:07:58.096Z,4.55
2023-02-05T16:10:29.058Z,3.28
2023-02-05T16:13:15.466Z,3.30
2023-02-05T16:15:47.027Z,2.80
2023-02-05T16:18:17.495Z,3.45
2023-02-05T16:20:47.913Z,4.35
2023-02-05T16:23:24.004Z,3.35
2023-02-05T16:26:00.124Z,3.13
2023-02-05T16:28:27.062Z,3.80
2023-02-05T16:30:55.773Z,4.55
2023-02-05T16:33:34.800Z,3.38
2023-02-05T16:36:03.856Z,3.70
2023-02-05T16:38:31.054Z,3.92
2023-02-05T16:40:59.652Z,3.58
2023-02-05T16:43:37.329Z,4.05
2023-02-05T16:46:07.615Z,5.45
2023-02-05T16:48:36.799Z,4.53
2023-02-05T16:51:03.974Z,3.25
2023-02-05T16:53:32.126Z,4.70
2023-02-05T16:56:02.399Z,3.92
2023-02-05T16:58:36.930Z,4.35
2023-02-05T17:01:04.450Z,3.70
2023-02-05T17:03:41.579Z,4.85
2023-02-05T17:06:13.627Z,3.50
2023-02-05T17:08:40.931Z,4.43
2023-02-05T17:11:08.651Z,4.47
2023-02-05T17:13:43.554Z,3.47
2023-02-05T17:16:30.326Z,3.40
2023-02-05T17:18:58.861Z,3.45
2023-02-05T17:21:27.608Z,4.18
2023-02-05T17:23:56.997Z,3.22
2023-02-05T17:26:24.389Z,5.40
2023-02-05T17:29:03.451Z,3.75
2023-02-05T17:31:31.711Z,4.85
2023-02-05T17:33:59.262Z,4.45
2023-02-05T17:36:26.645Z,3.20
2023-02-05T17:38:54.095Z,3.05
2023-02-05T17:41:41.358Z,4.28
2023-02-05T17:44:10.569Z,4.45
2023-02-05T17:46:37.620Z,4.22
2023-02-05T17:49:04.668Z,4.22
2023-02-05T17:51:34.013Z,4.13
2023-02-05T17:54:01.400Z,5.80
2023-02-05T17:56:28.732Z,4.60
2023-02-05T17:58:55.783Z,4.40
2023-02-05T18:01:23.012Z,3.83
2023-02-05T18:03:50.062Z,4.15
2023-02-05T18:06:18.664Z,4.00
2023-02-05T18:08:45.758Z,4.75
2023-02-05T18:11:12.831Z,6.05
2023-02-05T18:13:39.875Z,3.28
2023-02-05T18:16:07.037Z,3.97
2023-02-05T18:18:36.382Z,5.10
2023-02-05T18:21:03.429Z,4.38
2023-02-05T18:23:30.464Z,5.10
2023-02-05T18:25:58.166Z,6.10
2023-02-05T18:28:25.522Z,4.38
2023-02-05T18:31:08.829Z,6.43
2023-02-05T18:33:36.099Z,4.65
2023-02-05T18:36:07.470Z,5.10
2023-02-05T18:38:37.825Z,3.95
2023-02-05T18:41:08.974Z,4.80
2023-02-05T18:43:36.843Z,5.15
2023-02-05T18:46:08.080Z,4.22
2023-02-05T18:48:35.238Z,4.57
2023-02-05T18:51:08.694Z,4.53
2023-02-05T18:53:35.838Z,7.15
2023-02-05T18:56:07.082Z,5.68
2023-02-05T18:58:34.360Z,4.47
2023-02-05T19:01:15.206Z,4.43
2023-02-05T19:03:42.726Z,4.25
2023-02-05T19:06:10.480Z,4.45
2023-02-05T19:08:37.583Z,4.18
2023-02-05T19:11:15.948Z,5.00
2023-02-05T19:13:43.241Z,4.18
2023-02-05T19:16:16.762Z,6.65
2023-02-05T19:18:44.935Z,4.00
2023-02-05T19:21:15.919Z,5.07
2023-02-05T19:23:44.224Z,6.68
2023-02-05T19:26:13.961Z,3.28
2023-02-05T19:28:41.327Z,3.67
2023-02-05T19:31:10.141Z,4.03
2023-02-05T19:33:37.403Z,3.72
2023-02-05T19:36:05.301Z,6.93
2023-02-05T19:38:32.657Z,3.20
2023-02-05T19:41:05.512Z,4.90
2023-02-05T19:43:32.478Z,4.82
2023-02-05T19:46:06.591Z,4.55
2023-02-05T19:48:34.246Z,4.95
2023-02-05T19:51:05.335Z,3.75
2023-02-05T19:53:32.441Z,3.90
2023-02-05T19:56:06.839Z,3.80
2023-02-05T19:58:34.415Z,5.20
2023-02-05T20:01:01.597Z,4.32
2023-02-05T20:03:29.299Z,4.97
2023-02-05T20:06:00.871Z,4.65
2023-02-05T20:08:29.343Z,4.15
2023-02-05T20:11:00.397Z,5.43
2023-02-05T20:13:28.003Z,4.85
2023-02-05T20:15:55.645Z,4.53
2023-02-05T20:18:22.775Z,5.05
2023-02-05T20:20:49.942Z,4.10
2023-02-05T20:23:17.687Z,5.07
2023-02-05T20:25:52.362Z,5.90
2023-02-05T20:28:19.408Z,4.95
2023-02-05T20:31:05.136Z,5.18
2023-02-05T20:33:32.214Z,3.58
2023-02-05T20:36:03.428Z,4.90
2023-02-05T20:38:30.432Z,5.30
2023-02-05T20:40:57.560Z,4.85
2023-02-05T20:43:24.572Z,4.55
2023-02-05T20:45:51.886Z,4.93
2023-02-05T20:48:21.470Z,4.47
2023-02-05T20:50:48.731Z,4.75
2023-02-05T20:53:15.803Z,4.70
2023-02-05T20:55:42.818Z,5.00
2023-02-05T20:58:09.839Z,6.78
2023-02-05T21:00:37.638Z,3.88
2023-02-05T21:03:05.017Z,4.97
2023-02-05T21:05:32.042Z,4.78
2023-02-05T21:07:59.138Z,4.63
2023-02-05T21:10:26.158Z,4.95
2023-02-05T21:12:53.125Z,5.18
2023-02-05T21:15:20.192Z,5.03
2023-02-05T21:17:47.168Z,5.60
2023-02-05T21:20:20.211Z,6.10
2023-02-05T21:22:47.205Z,5.70
2023-02-05T21:25:14.337Z,5.30
2023-02-05T21:27:41.359Z,5.00
2023-02-05T21:30:08.666Z,4.93
2023-02-05T21:32:35.672Z,3.75
2023-02-05T21:35:02.704Z,3.75
2023-02-05T21:37:29.732Z,5.35
2023-02-05T21:40:08.906Z,5.72
2023-02-05T21:42:39.064Z,4.00
2023-02-05T21:45:06.525Z,4.32
2023-02-05T21:47:33.586Z,4.78
2023-02-05T21:50:03.172Z,4.97
2023-02-05T21:52:31.189Z,4.45
2023-02-05T21:54:58.162Z,3.95
2023-02-05T21:57:25.200Z,4.88
2023-02-05T21:59:52.464Z,3.83
2023-02-05T22:02:19.540Z,3.53
2023-02-05T22:04:46.750Z,3.80
2023-02-05T22:07:13.720Z,4.43
2023-02-05T22:09:42.069Z,4.30
2023-02-05T22:12:09.578Z,4.90
2023-02-05T22:14:36.587Z,3.70
2023-02-05T22:17:03.661Z,5.93
2023-02-05T22:19:30.676Z,3.83
2023-02-05T22:21:57.683Z,3.08
2023-02-05T22:24:24.673Z,3.28
2023-02-05T22:26:51.841Z,4.25
2023-02-05T22:29:20.216Z,3.10
2023-02-05T22:31:51.603Z,3.60
2023-02-05T22:34:18.787Z,4.05
2023-02-05T22:36:45.825Z,4.15
2023-02-05T22:39:12.990Z,3.95
2023-02-05T22:41:41.645Z,2.97
2023-02-05T22:44:09.551Z,2.60
2023-02-05T22:46:39.185Z,5.55
2023-02-05T22:49:06.380Z,3.83
2023-02-05T22:51:35.397Z,4.20
2023-02-05T22:54:02.862Z,5.05
2023-02-05T22:56:29.992Z,3.03
2023-02-05T22:58:57.148Z,3.70
2023-02-05T23:01:25.864Z,6.65
2023-02-05T23:03:53.275Z,3.58
2023-02-05T23:06:22.448Z,3.90
2023-02-05T23:08:51.328Z,3.22
2023-02-05T23:11:18.770Z,5.65
2023-02-05T23:13:45.827Z,3.40
2023-02-05T23:16:14.246Z,4.85
2023-02-05T23:18:41.878Z,4.00
2023-02-05T23:21:09.615Z,3.67
2023-02-05T23:23:36.695Z,4.35
2023-02-05T23:26:10.512Z,3.78
2023-02-05T23:28:37.565Z,3.75
2023-02-05T23:31:05.113Z,4.72
2023-02-05T23:33:32.452Z,4.93
2023-02-05T23:35:59.876Z,4.97
2023-02-05T23:38:27.456Z,4.47
2023-02-05T23:40:55.179Z,4.10
2023-02-05T23:43:22.187Z,4.80
2023-02-05T23:45:50.156Z,4.80
2023-02-05T23:48:17.555Z,4.32
2023-02-05T23:50:45.056Z,4.40
2023-02-05T23:53:12.315Z,5.50
2023-02-05T23:55:42.947Z,4.30
